sensor_id;sensor_type;location;lat;lon;timestamp;P1;durP1;ratioP1;P2;durP2;ratioP2
19095;SDS011;9680;52.520;13.332;2024-02-15T00:01:05;9.10;;;4.80;;
19095;SDS011;9680;52.520;13.332;2024-02-15T00:03:32;8.57;;;4.50;;
19095;SDS011;9680;52.520;13.332;2024-02-15T00:06:00;8.83;;;4.60;;
19095;SDS011;9680;52.520;13.332;2024-02-15T00:08:28;9.80;;;4.77;;
19095;SDS011;9680;52.520;13.332;2024-02-15T00:10:55;8.80;;;4.67;;
19095;SDS011;9680;52.520;13.332;2024-02-15T00:13:23;8.70;;;4.47;;
19095;SDS011;9680;52.520;13.332;2024-02-15T00:15:50;10.80;;;4.90;;
19095;SDS011;9680;52.520;13.332;2024-02-15T00:18:18;7.93;;;4.40;;
19095;SDS011;9680;52.520;13.332;2024-02-15T00:23:22;8.93;;;4.50;;
19095;SDS011;9680;52.520;13.332;2024-02-15T00:25:49;9.23;;;4.50;;
19095;SDS011;9680;52.520;13.332;2024-02-15T00:28:20;9.83;;;4.70;;
19095;SDS011;9680;52.520;13.332;2024-02-15T00:30:50;10.73;;;4.67;;
19095;SDS011;9680;52.520;13.332;2024-02-15T00:33:28;10.23;;;4.50;;
19095;SDS011;9680;52.520;13.332;2024-02-15T00:35:55;8.97;;;4.50;;
19095;SDS011;9680;52.520;13.332;2024-02-15T00:38:51;9.17;;;4.37;;
19095;SDS011;9680;52.520;13.332;2024-02-15T00:41:32;8.63;;;4.30;;
19095;SDS011;9680;52.520;13.332;2024-02-15T00:44:01;8.07;;;4.60;;
19095;SDS011;9680;52.520;13.332;2024-02-15T00:48:56;8.70;;;4.50;;
19095;SDS011;9680;52.520;13.332;2024-02-15T00:51:23;8.20;;;4.80;;
19095;SDS011;9680;52.520;13.332;2024-02-15T00:53:50;11.77;;;5.43;;
19095;SDS011;9680;52.520;13.332;2024-02-15T00:56:17;12.00;;;4.70;;
19095;SDS011;9680;52.520;13.332;2024-02-15T00:58:47;9.97;;;4.67;;
19095;SDS011;9680;52.520;13.332;2024-02-15T01:01:14;10.18;;;4.93;;
19095;SDS011;9680;52.520;13.332;2024-02-15T01:03:57;11.07;;;4.82;;
19095;SDS011;9680;52.520;13.332;2024-02-15T01:06:24;10.47;;;5.07;;
19095;SDS011;9680;52.520;13.332;2024-02-15T01:08:51;10.03;;;5.53;;
19095;SDS011;9680;52.520;13.332;2024-02-15T01:11:18;11.40;;;5.67;;
19095;SDS011;9680;52.520;13.332;2024-02-15T01:13:46;10.53;;;5.03;;
19095;SDS011;9680;52.520;13.332;2024-02-15T01:16:14;12.57;;;5.33;;
19095;SDS011;9680;52.520;13.332;2024-02-15T01:18:41;12.20;;;5.97;;
19095;SDS011;9680;52.520;13.332;2024-02-15T01:21:10;10.30;;;5.67;;
19095;SDS011;9680;52.520;13.332;2024-02-15T01:23:45;10.50;;;5.83;;
19095;SDS011;9680;52.520;13.332;2024-02-15T01:26:13;9.20;;;4.93;;
19095;SDS011;9680;52.520;13.332;2024-02-15T01:28:40;10.98;;;5.43;;
19095;SDS011;9680;52.520;13.332;2024-02-15T01:31:11;9.27;;;5.37;;
19095;SDS011;9680;52.520;13.332;2024-02-15T01:33:43;12.20;;;5.47;;
19095;SDS011;9680;52.520;13.332;2024-02-15T01:36:15;17.13;;;5.80;;
19095;SDS011;9680;52.520;13.332;2024-02-15T01:38:42;9.97;;;5.23;;
19095;SDS011;9680;52.520;13.332;2024-02-15T01:41:12;11.57;;;5.63;;
19095;SDS011;9680;52.520;13.332;2024-02-15T01:43:42;10.77;;;5.40;;
19095;SDS011;9680;52.520;13.332;2024-02-15T01:46:10;11.47;;;5.80;;
19095;SDS011;9680;52.520;13.332;2024-02-15T01:48:37;9.63;;;5.03;;
19095;SDS011;9680;52.520;13.332;2024-02-15T01:51:06;14.67;;;5.60;;
19095;SDS011;9680;52.520;13.332;2024-02-15T01:53:35;12.20;;;5.77;;
19095;SDS011;9680;52.520;13.332;2024-02-15T01:56:03;11.43;;;6.10;;
19095;SDS011;9680;52.520;13.332;2024-02-15T01:58:30;11.43;;;5.30;;
19095;SDS011;9680;52.520;13.332;2024-02-15T02:01:00;11.07;;;5.60;;
19095;SDS011;9680;52.520;13.332;2024-02-15T02:03:27;13.87;;;6.17;;
19095;SDS011;9680;52.520;13.332;2024-02-15T02:05:55;11.40;;;5.23;;
19095;SDS011;9680;52.520;13.332;2024-02-15T02:08:23;14.67;;;5.90;;
19095;SDS011;9680;52.520;13.332;2024-02-15T02:10:51;13.70;;;6.50;;
19095;SDS011;9680;52.520;13.332;2024-02-15T02:13:19;12.43;;;6.23;;
19095;SDS011;9680;52.520;13.332;2024-02-15T02:15:46;14.00;;;6.63;;
19095;SDS011;9680;52.520;13.332;2024-02-15T02:18:13;12.10;;;6.50;;
19095;SDS011;9680;52.520;13.332;2024-02-15T02:20:39;15.53;;;6.10;;
19095;SDS011;9680;52.520;13.332;2024-02-15T02:23:07;14.63;;;6.73;;
19095;SDS011;9680;52.520;13.332;2024-02-15T02:25:37;12.70;;;6.20;;
19095;SDS011;9680;52.520;13.332;2024-02-15T02:28:05;11.90;;;6.40;;
19095;SDS011;9680;52.520;13.332;2024-02-15T02:30:33;13.03;;;6.80;;
19095;SDS011;9680;52.520;13.332;2024-02-15T02:33:00;12.53;;;6.53;;
19095;SDS011;9680;52.520;13.332;2024-02-15T02:35:27;14.33;;;6.87;;
19095;SDS011;9680;52.520;13.332;2024-02-15T02:37:55;17.57;;;7.03;;
19095;SDS011;9680;52.520;13.332;2024-02-15T02:40:22;15.63;;;7.17;;
19095;SDS011;9680;52.520;13.332;2024-02-15T02:42:51;12.93;;;6.80;;
19095;SDS011;9680;52.520;13.332;2024-02-15T02:45:21;16.23;;;6.57;;
19095;SDS011;9680;52.520;13.332;2024-02-15T02:47:48;12.77;;;7.10;;
19095;SDS011;9680;52.520;13.332;2024-02-15T02:50:16;15.00;;;7.00;;
19095;SDS011;9680;52.520;13.332;2024-02-15T02:52:43;14.73;;;7.13;;
19095;SDS011;9680;52.520;13.332;2024-02-15T02:55:10;15.80;;;7.20;;
19095;SDS011;9680;52.520;13.332;2024-02-15T02:57:38;13.00;;;6.47;;
19095;SDS011;9680;52.520;13.332;2024-02-15T03:00:07;15.97;;;7.20;;
19095;SDS011;9680;52.520;13.332;2024-02-15T03:02:37;14.80;;;6.70;;
19095;SDS011;9680;52.520;13.332;2024-02-15T03:05:04;15.00;;;7.07;;
19095;SDS011;9680;52.520;13.332;2024-02-15T03:07:33;12.30;;;6.20;;
19095;SDS011;9680;52.520;13.332;2024-02-15T03:10:00;14.17;;;7.10;;
19095;SDS011;9680;52.520;13.332;2024-02-15T03:12:27;18.90;;;7.77;;
19095;SDS011;9680;52.520;13.332;2024-02-15T03:14:55;14.83;;;7.23;;
19095;SDS011;9680;52.520;13.332;2024-02-15T03:17:23;15.10;;;7.37;;
19095;SDS011;9680;52.520;13.332;2024-02-15T03:19:51;13.57;;;6.43;;
19095;SDS011;9680;52.520;13.332;2024-02-15T03:22:17;16.00;;;7.13;;
19095;SDS011;9680;52.520;13.332;2024-02-15T03:24:44;14.05;;;6.57;;
19095;SDS011;9680;52.520;13.332;2024-02-15T03:27:11;15.23;;;6.83;;
19095;SDS011;9680;52.520;13.332;2024-02-15T03:29:38;13.37;;;6.87;;
19095;SDS011;9680;52.520;13.332;2024-02-15T03:32:06;13.75;;;6.53;;
19095;SDS011;9680;52.520;13.332;2024-02-15T03:34:36;13.37;;;6.47;;
19095;SDS011;9680;52.520;13.332;2024-02-15T03:37:04;13.43;;;6.87;;
19095;SDS011;9680;52.520;13.332;2024-02-15T03:39:31;13.07;;;6.03;;
19095;SDS011;9680;52.520;13.332;2024-02-15T03:41:58;12.73;;;6.07;;
19095;SDS011;9680;52.520;13.332;2024-02-15T03:44:25;13.23;;;6.40;;
19095;SDS011;9680;52.520;13.332;2024-02-15T03:46:52;14.27;;;6.67;;
19095;SDS011;9680;52.520;13.332;2024-02-15T03:49:20;10.87;;;5.80;;
19095;SDS011;9680;52.520;13.332;2024-02-15T03:51:49;13.88;;;6.68;;
19095;SDS011;9680;52.520;13.332;2024-02-15T03:54:16;15.20;;;6.23;;
19095;SDS011;9680;52.520;13.332;2024-02-15T03:56:46;13.13;;;6.37;;
19095;SDS011;9680;52.520;13.332;2024-02-15T03:59:18;14.33;;;6.43;;
19095;SDS011;9680;52.520;13.332;2024-02-15T04:01:52;13.93;;;6.90;;
19095;SDS011;9680;52.520;13.332;2024-02-15T04:04:19;15.70;;;6.63;;
19095;SDS011;9680;52.520;13.332;2024-02-15T04:06:48;14.10;;;6.30;;
19095;SDS011;9680;52.520;13.332;2024-02-15T04:09:16;14.27;;;6.37;;
19095;SDS011;9680;52.520;13.332;2024-02-15T04:11:43;14.37;;;6.53;;
19095;SDS011;9680;52.520;13.332;2024-02-15T04:14:15;13.20;;;6.63;;
19095;SDS011;9680;52.520;13.332;2024-02-15T04:16:43;31.33;;;7.00;;
19095;SDS011;9680;52.520;13.332;2024-02-15T04:19:10;15.37;;;6.80;;
19095;SDS011;9680;52.520;13.332;2024-02-15T04:21:37;12.82;;;6.22;;
19095;SDS011;9680;52.520;13.332;2024-02-15T04:24:06;13.30;;;6.47;;
19095;SDS011;9680;52.520;13.332;2024-02-15T04:26:34;14.13;;;6.33;;
19095;SDS011;9680;52.520;13.332;2024-02-15T04:29:02;15.93;;;7.03;;
19095;SDS011;9680;52.520;13.332;2024-02-15T04:31:29;15.87;;;7.13;;
19095;SDS011;9680;52.520;13.332;2024-02-15T04:33:57;13.43;;;6.53;;
19095;SDS011;9680;52.520;13.332;2024-02-15T04:36:24;13.43;;;6.33;;
19095;SDS011;9680;52.520;13.332;2024-02-15T04:38:51;14.85;;;7.00;;
19095;SDS011;9680;52.520;13.332;2024-02-15T04:41:20;13.70;;;6.83;;
19095;SDS011;9680;52.520;13.332;2024-02-15T04:43:48;15.13;;;6.70;;
19095;SDS011;9680;52.520;13.332;2024-02-15T04:46:15;15.40;;;6.90;;
19095;SDS011;9680;52.520;13.332;2024-02-15T04:48:42;15.03;;;6.77;;
19095;SDS011;9680;52.520;13.332;2024-02-15T04:51:09;15.17;;;6.77;;
19095;SDS011;9680;52.520;13.332;2024-02-15T04:53:36;14.50;;;6.70;;
19095;SDS011;9680;52.520;13.332;2024-02-15T04:56:05;17.17;;;7.00;;
19095;SDS011;9680;52.520;13.332;2024-02-15T04:58:38;15.97;;;6.63;;
19095;SDS011;9680;52.520;13.332;2024-02-15T05:01:11;13.13;;;6.53;;
19095;SDS011;9680;52.520;13.332;2024-02-15T05:03:39;14.33;;;6.20;;
19095;SDS011;9680;52.520;13.332;2024-02-15T05:06:06;15.85;;;6.70;;
19095;SDS011;9680;52.520;13.332;2024-02-15T05:08:35;15.37;;;6.93;;
19095;SDS011;9680;52.520;13.332;2024-02-15T05:11:03;15.33;;;6.50;;
19095;SDS011;9680;52.520;13.332;2024-02-15T05:13:31;15.97;;;7.07;;
19095;SDS011;9680;52.520;13.332;2024-02-15T05:16:00;15.37;;;6.87;;
19095;SDS011;9680;52.520;13.332;2024-02-15T05:18:27;12.80;;;6.27;;
19095;SDS011;9680;52.520;13.332;2024-02-15T05:20:55;14.63;;;6.70;;
19095;SDS011;9680;52.520;13.332;2024-02-15T05:23:22;11.88;;;6.07;;
19095;SDS011;9680;52.520;13.332;2024-02-15T05:25:49;14.33;;;6.90;;
19095;SDS011;9680;52.520;13.332;2024-02-15T05:28:16;15.33;;;7.20;;
19095;SDS011;9680;52.520;13.332;2024-02-15T05:30:44;15.23;;;6.47;;
19095;SDS011;9680;52.520;13.332;2024-02-15T05:33:12;15.40;;;6.73;;
19095;SDS011;9680;52.520;13.332;2024-02-15T05:35:39;14.30;;;6.53;;
19095;SDS011;9680;52.520;13.332;2024-02-15T05:38:07;14.00;;;6.10;;
19095;SDS011;9680;52.520;13.332;2024-02-15T05:40:33;15.63;;;6.37;;
19095;SDS011;9680;52.520;13.332;2024-02-15T05:43:00;18.13;;;6.57;;
19095;SDS011;9680;52.520;13.332;2024-02-15T05:45:28;18.77;;;6.57;;
19095;SDS011;9680;52.520;13.332;2024-02-15T05:47:59;12.50;;;6.20;;
19095;SDS011;9680;52.520;13.332;2024-02-15T05:50:28;13.48;;;5.95;;
19095;SDS011;9680;52.520;13.332;2024-02-15T05:52:56;14.48;;;6.47;;
19095;SDS011;9680;52.520;13.332;2024-02-15T05:55:24;13.53;;;6.07;;
19095;SDS011;9680;52.520;13.332;2024-02-15T05:57:52;14.43;;;6.07;;
19095;SDS011;9680;52.520;13.332;2024-02-15T06:00:19;16.17;;;6.73;;
19095;SDS011;9680;52.520;13.332;2024-02-15T06:02:47;27.33;;;10.33;;
19095;SDS011;9680;52.520;13.332;2024-02-15T06:05:14;14.97;;;6.63;;
19095;SDS011;9680;52.520;13.332;2024-02-15T06:07:43;14.63;;;6.40;;
19095;SDS011;9680;52.520;13.332;2024-02-15T06:10:11;13.67;;;5.97;;
19095;SDS011;9680;52.520;13.332;2024-02-15T06:12:38;15.75;;;6.13;;
19095;SDS011;9680;52.520;13.332;2024-02-15T06:15:05;12.83;;;5.87;;
19095;SDS011;9680;52.520;13.332;2024-02-15T06:17:40;12.30;;;5.70;;
19095;SDS011;9680;52.520;13.332;2024-02-15T06:20:10;13.97;;;6.20;;
19095;SDS011;9680;52.520;13.332;2024-02-15T06:22:39;14.90;;;6.50;;
19095;SDS011;9680;52.520;13.332;2024-02-15T06:25:08;13.13;;;6.17;;
19095;SDS011;9680;52.520;13.332;2024-02-15T06:27:35;14.10;;;6.10;;
19095;SDS011;9680;52.520;13.332;2024-02-15T06:30:06;14.18;;;5.97;;
19095;SDS011;9680;52.520;13.332;2024-02-15T06:32:52;13.50;;;6.57;;
19095;SDS011;9680;52.520;13.332;2024-02-15T06:35:38;14.70;;;5.93;;
19095;SDS011;9680;52.520;13.332;2024-02-15T06:38:23;16.98;;;6.65;;
19095;SDS011;9680;52.520;13.332;2024-02-15T06:41:09;14.10;;;6.22;;
19095;SDS011;9680;52.520;13.332;2024-02-15T06:43:36;15.80;;;6.50;;
19095;SDS011;9680;52.520;13.332;2024-02-15T06:46:05;14.73;;;6.45;;
19095;SDS011;9680;52.520;13.332;2024-02-15T06:48:33;13.30;;;6.13;;
19095;SDS011;9680;52.520;13.332;2024-02-15T06:50:59;14.15;;;6.28;;
19095;SDS011;9680;52.520;13.332;2024-02-15T06:53:28;14.30;;;6.20;;
19095;SDS011;9680;52.520;13.332;2024-02-15T06:55:55;14.97;;;5.70;;
19095;SDS011;9680;52.520;13.332;2024-02-15T06:58:24;12.57;;;5.80;;
19095;SDS011;9680;52.520;13.332;2024-02-15T07:00:52;16.33;;;6.27;;
19095;SDS011;9680;52.520;13.332;2024-02-15T07:03:20;15.13;;;6.50;;
19095;SDS011;9680;52.520;13.332;2024-02-15T07:05:47;13.07;;;5.85;;
19095;SDS011;9680;52.520;13.332;2024-02-15T07:08:15;15.85;;;5.75;;
19095;SDS011;9680;52.520;13.332;2024-02-15T07:10:42;14.13;;;6.03;;
19095;SDS011;9680;52.520;13.332;2024-02-15T07:13:09;14.95;;;5.97;;
19095;SDS011;9680;52.520;13.332;2024-02-15T07:15:37;16.77;;;6.10;;
19095;SDS011;9680;52.520;13.332;2024-02-15T07:18:04;15.23;;;6.15;;
19095;SDS011;9680;52.520;13.332;2024-02-15T07:20:32;13.40;;;6.10;;
19095;SDS011;9680;52.520;13.332;2024-02-15T07:22:59;12.48;;;5.70;;
19095;SDS011;9680;52.520;13.332;2024-02-15T07:25:27;16.83;;;5.97;;
19095;SDS011;9680;52.520;13.332;2024-02-15T07:27:53;11.80;;;5.80;;
19095;SDS011;9680;52.520;13.332;2024-02-15T07:30:22;12.35;;;5.40;;
19095;SDS011;9680;52.520;13.332;2024-02-15T07:32:50;12.23;;;6.00;;
19095;SDS011;9680;52.520;13.332;2024-02-15T07:35:17;12.30;;;5.65;;
19095;SDS011;9680;52.520;13.332;2024-02-15T07:37:51;12.27;;;5.60;;
19095;SDS011;9680;52.520;13.332;2024-02-15T07:40:20;12.20;;;5.70;;
19095;SDS011;9680;52.520;13.332;2024-02-15T07:42:48;11.90;;;5.80;;
19095;SDS011;9680;52.520;13.332;2024-02-15T07:45:15;12.93;;;5.60;;
19095;SDS011;9680;52.520;13.332;2024-02-15T07:47:43;13.15;;;5.35;;
19095;SDS011;9680;52.520;13.332;2024-02-15T07:50:21;12.35;;;5.40;;
19095;SDS011;9680;52.520;13.332;2024-02-15T07:52:48;11.70;;;5.72;;
19095;SDS011;9680;52.520;13.332;2024-02-15T07:55:16;10.82;;;5.25;;
19095;SDS011;9680;52.520;13.332;2024-02-15T07:57:43;16.73;;;6.38;;
19095;SDS011;9680;52.520;13.332;2024-02-15T08:00:12;14.70;;;6.25;;
19095;SDS011;9680;52.520;13.332;2024-02-15T08:02:41;11.15;;;5.60;;
19095;SDS011;9680;52.520;13.332;2024-02-15T08:05:09;11.88;;;5.18;;
19095;SDS011;9680;52.520;13.332;2024-02-15T08:07:40;12.38;;;5.30;;
19095;SDS011;9680;52.520;13.332;2024-02-15T08:10:08;11.18;;;5.70;;
19095;SDS011;9680;52.520;13.332;2024-02-15T08:12:38;10.07;;;5.15;;
19095;SDS011;9680;52.520;13.332;2024-02-15T08:15:06;15.10;;;5.57;;
19095;SDS011;9680;52.520;13.332;2024-02-15T08:17:37;10.77;;;5.22;;
19095;SDS011;9680;52.520;13.332;2024-02-15T08:20:06;11.93;;;5.22;;
19095;SDS011;9680;52.520;13.332;2024-02-15T08:22:35;10.32;;;5.00;;
19095;SDS011;9680;52.520;13.332;2024-02-15T08:25:06;12.63;;;5.22;;
19095;SDS011;9680;52.520;13.332;2024-02-15T08:27:36;9.90;;;4.60;;
19095;SDS011;9680;52.520;13.332;2024-02-15T08:30:08;13.68;;;5.63;;
19095;SDS011;9680;52.520;13.332;2024-02-15T08:32:37;12.75;;;5.43;;
19095;SDS011;9680;52.520;13.332;2024-02-15T08:35:05;9.48;;;4.85;;
19095;SDS011;9680;52.520;13.332;2024-02-15T08:37:33;9.80;;;5.07;;
19095;SDS011;9680;52.520;13.332;2024-02-15T08:40:00;12.88;;;5.35;;
19095;SDS011;9680;52.520;13.332;2024-02-15T08:42:37;9.88;;;5.15;;
19095;SDS011;9680;52.520;13.332;2024-02-15T08:45:05;10.63;;;4.78;;
19095;SDS011;9680;52.520;13.332;2024-02-15T08:47:34;10.93;;;4.82;;
19095;SDS011;9680;52.520;13.332;2024-02-15T08:50:03;10.63;;;4.97;;
19095;SDS011;9680;52.520;13.332;2024-02-15T08:52:30;10.88;;;5.05;;
19095;SDS011;9680;52.520;13.332;2024-02-15T08:54:57;10.85;;;5.22;;
19095;SDS011;9680;52.520;13.332;2024-02-15T08:57:26;9.60;;;4.80;;
19095;SDS011;9680;52.520;13.332;2024-02-15T08:59:54;9.95;;;4.50;;
19095;SDS011;9680;52.520;13.332;2024-02-15T09:02:21;10.15;;;4.80;;
19095;SDS011;9680;52.520;13.332;2024-02-15T09:04:47;9.65;;;4.65;;
19095;SDS011;9680;52.520;13.332;2024-02-15T09:07:14;9.52;;;4.70;;
19095;SDS011;9680;52.520;13.332;2024-02-15T09:09:41;9.95;;;4.68;;
19095;SDS011;9680;52.520;13.332;2024-02-15T09:12:10;9.02;;;4.57;;
19095;SDS011;9680;52.520;13.332;2024-02-15T09:14:38;8.88;;;4.40;;
19095;SDS011;9680;52.520;13.332;2024-02-15T09:17:06;14.77;;;5.20;;
19095;SDS011;9680;52.520;13.332;2024-02-15T09:19:33;11.02;;;5.22;;
19095;SDS011;9680;52.520;13.332;2024-02-15T09:22:00;10.85;;;4.88;;
19095;SDS011;9680;52.520;13.332;2024-02-15T09:24:29;9.43;;;4.82;;
19095;SDS011;9680;52.520;13.332;2024-02-15T09:26:58;8.48;;;4.53;;
19095;SDS011;9680;52.520;13.332;2024-02-15T09:29:26;8.32;;;4.60;;
19095;SDS011;9680;52.520;13.332;2024-02-15T09:31:55;8.35;;;4.22;;
19095;SDS011;9680;52.520;13.332;2024-02-15T09:34:24;8.90;;;4.65;;
19095;SDS011;9680;52.520;13.332;2024-02-15T09:36:51;11.05;;;4.95;;
19095;SDS011;9680;52.520;13.332;2024-02-15T09:39:18;10.30;;;4.32;;
19095;SDS011;9680;52.520;13.332;2024-02-15T09:41:45;9.95;;;4.47;;
19095;SDS011;9680;52.520;13.332;2024-02-15T09:44:11;9.13;;;4.25;;
19095;SDS011;9680;52.520;13.332;2024-02-15T09:46:42;9.73;;;4.85;;
19095;SDS011;9680;52.520;13.332;2024-02-15T09:49:11;8.63;;;4.07;;
19095;SDS011;9680;52.520;13.332;2024-02-15T09:51:41;7.53;;;4.18;;
19095;SDS011;9680;52.520;13.332;2024-02-15T09:54:09;9.13;;;4.68;;
19095;SDS011;9680;52.520;13.332;2024-02-15T09:56:38;6.75;;;3.80;;
19095;SDS011;9680;52.520;13.332;2024-02-15T09:59:06;8.80;;;4.35;;
19095;SDS011;9680;52.520;13.332;2024-02-15T10:01:33;8.52;;;4.22;;
19095;SDS011;9680;52.520;13.332;2024-02-15T10:04:03;7.80;;;3.78;;
19095;SDS011;9680;52.520;13.332;2024-02-15T10:06:32;9.43;;;4.30;;
19095;SDS011;9680;52.520;13.332;2024-02-15T10:11:56;7.68;;;4.20;;
19095;SDS011;9680;52.520;13.332;2024-02-15T10:14:23;7.85;;;3.80;;
19095;SDS011;9680;52.520;13.332;2024-02-15T10:16:52;10.82;;;3.95;;
19095;SDS011;9680;52.520;13.332;2024-02-15T10:19:19;7.75;;;3.95;;
19095;SDS011;9680;52.520;13.332;2024-02-15T10:21:50;8.20;;;3.97;;
19095;SDS011;9680;52.520;13.332;2024-02-15T10:24:20;6.72;;;3.60;;
19095;SDS011;9680;52.520;13.332;2024-02-15T10:26:50;9.93;;;3.80;;
19095;SDS011;9680;52.520;13.332;2024-02-15T10:29:16;8.25;;;3.83;;
19095;SDS011;9680;52.520;13.332;2024-02-15T10:31:52;7.05;;;3.38;;
19095;SDS011;9680;52.520;13.332;2024-02-15T10:34:20;8.93;;;3.90;;
19095;SDS011;9680;52.520;13.332;2024-02-15T10:36:47;9.55;;;4.97;;
19095;SDS011;9680;52.520;13.332;2024-02-15T10:39:15;8.00;;;3.70;;
19095;SDS011;9680;52.520;13.332;2024-02-15T10:41:45;6.63;;;3.38;;
19095;SDS011;9680;52.520;13.332;2024-02-15T10:44:15;7.43;;;3.67;;
19095;SDS011;9680;52.520;13.332;2024-02-15T10:46:44;6.97;;;3.42;;
19095;SDS011;9680;52.520;13.332;2024-02-15T10:49:12;6.28;;;3.50;;
19095;SDS011;9680;52.520;13.332;2024-02-15T10:51:42;6.32;;;3.40;;
19095;SDS011;9680;52.520;13.332;2024-02-15T10:54:11;7.45;;;3.17;;
19095;SDS011;9680;52.520;13.332;2024-02-15T10:56:43;6.38;;;3.60;;
19095;SDS011;9680;52.520;13.332;2024-02-15T10:59:17;7.82;;;3.28;;
19095;SDS011;9680;52.520;13.332;2024-02-15T11:01:45;7.88;;;3.20;;
19095;SDS011;9680;52.520;13.332;2024-02-15T11:04:15;5.10;;;2.80;;
19095;SDS011;9680;52.520;13.332;2024-02-15T11:06:46;5.32;;;2.80;;
19095;SDS011;9680;52.520;13.332;2024-02-15T11:09:16;4.95;;;2.97;;
19095;SDS011;9680;52.520;13.332;2024-02-15T11:11:44;5.47;;;2.80;;
19095;SDS011;9680;52.520;13.332;2024-02-15T11:14:24;6.72;;;2.70;;
19095;SDS011;9680;52.520;13.332;2024-02-15T11:16:52;4.88;;;2.70;;
19095;SDS011;9680;52.520;13.332;2024-02-15T11:22:12;5.88;;;2.67;;
19095;SDS011;9680;52.520;13.332;2024-02-15T11:24:47;4.50;;;2.45;;
19095;SDS011;9680;52.520;13.332;2024-02-15T11:27:25;5.20;;;2.80;;
19095;SDS011;9680;52.520;13.332;2024-02-15T11:29:58;5.80;;;2.67;;
19095;SDS011;9680;52.520;13.332;2024-02-15T11:32:39;8.23;;;2.80;;
19095;SDS011;9680;52.520;13.332;2024-02-15T11:35:12;8.75;;;2.88;;
19095;SDS011;9680;52.520;13.332;2024-02-15T11:37:51;5.90;;;2.70;;
19095;SDS011;9680;52.520;13.332;2024-02-15T11:40:18;3.80;;;2.35;;
19095;SDS011;9680;52.520;13.332;2024-02-15T11:42:48;4.40;;;2.67;;
19095;SDS011;9680;52.520;13.332;2024-02-15T11:45:16;4.40;;;2.47;;
19095;SDS011;9680;52.520;13.332;2024-02-15T11:47:46;5.60;;;2.35;;
19095;SDS011;9680;52.520;13.332;2024-02-15T11:50:16;6.78;;;2.95;;
19095;SDS011;9680;52.520;13.332;2024-02-15T11:52:46;4.97;;;2.70;;
19095;SDS011;9680;52.520;13.332;2024-02-15T11:55:14;4.82;;;2.58;;
19095;SDS011;9680;52.520;13.332;2024-02-15T11:57:44;4.50;;;2.67;;
19095;SDS011;9680;52.520;13.332;2024-02-15T12:00:29;6.85;;;3.20;;
19095;SDS011;9680;52.520;13.332;2024-02-15T12:03:13;8.73;;;2.95;;
19095;SDS011;9680;52.520;13.332;2024-02-15T12:05:58;5.18;;;3.03;;
19095;SDS011;9680;52.520;13.332;2024-02-15T12:08:43;7.53;;;3.15;;
19095;SDS011;9680;52.520;13.332;2024-02-15T12:11:28;7.57;;;2.78;;
19095;SDS011;9680;52.520;13.332;2024-02-15T12:14:14;6.28;;;2.97;;
19095;SDS011;9680;52.520;13.332;2024-02-15T12:17:03;5.05;;;2.90;;
19095;SDS011;9680;52.520;13.332;2024-02-15T12:19:49;4.70;;;2.63;;
19095;SDS011;9680;52.520;13.332;2024-02-15T12:22:18;5.55;;;2.67;;
19095;SDS011;9680;52.520;13.332;2024-02-15T12:24:54;6.57;;;2.80;;
19095;SDS011;9680;52.520;13.332;2024-02-15T12:27:22;5.32;;;2.60;;
19095;SDS011;9680;52.520;13.332;2024-02-15T12:29:55;5.55;;;2.90;;
19095;SDS011;9680;52.520;13.332;2024-02-15T12:32:24;5.75;;;2.53;;
19095;SDS011;9680;52.520;13.332;2024-02-15T12:34:52;5.97;;;2.45;;
19095;SDS011;9680;52.520;13.332;2024-02-15T12:37:20;4.18;;;2.22;;
19095;SDS011;9680;52.520;13.332;2024-02-15T12:39:49;3.40;;;2.30;;
19095;SDS011;9680;52.520;13.332;2024-02-15T12:42:16;6.05;;;2.28;;
19095;SDS011;9680;52.520;13.332;2024-02-15T12:44:45;3.85;;;2.10;;
19095;SDS011;9680;52.520;13.332;2024-02-15T12:47:19;10.65;;;2.05;;
19095;SDS011;9680;52.520;13.332;2024-02-15T12:49:48;4.78;;;2.10;;
19095;SDS011;9680;52.520;13.332;2024-02-15T12:55:12;12.27;;;2.42;;
19095;SDS011;9680;52.520;13.332;2024-02-15T12:57:41;3.28;;;2.03;;
19095;SDS011;9680;52.520;13.332;2024-02-15T13:00:12;3.60;;;2.30;;
19095;SDS011;9680;52.520;13.332;2024-02-15T13:02:43;2.38;;;1.60;;
19095;SDS011;9680;52.520;13.332;2024-02-15T13:05:12;3.38;;;1.85;;
19095;SDS011;9680;52.520;13.332;2024-02-15T13:07:39;3.25;;;2.03;;
19095;SDS011;9680;52.520;13.332;2024-02-15T13:10:06;3.78;;;1.90;;
19095;SDS011;9680;52.520;13.332;2024-02-15T13:12:34;4.43;;;1.85;;
19095;SDS011;9680;52.520;13.332;2024-02-15T13:15:03;4.20;;;2.00;;
19095;SDS011;9680;52.520;13.332;2024-02-15T13:17:31;4.47;;;1.80;;
19095;SDS011;9680;52.520;13.332;2024-02-15T13:20:00;5.13;;;1.85;;
19095;SDS011;9680;52.520;13.332;2024-02-15T13:22:32;8.13;;;2.00;;
19095;SDS011;9680;52.520;13.332;2024-02-15T13:27:50;3.60;;;2.00;;
19095;SDS011;9680;52.520;13.332;2024-02-15T13:30:17;4.38;;;1.88;;
19095;SDS011;9680;52.520;13.332;2024-02-15T13:32:48;3.72;;;1.80;;
19095;SDS011;9680;52.520;13.332;2024-02-15T13:35:16;3.47;;;2.08;;
19095;SDS011;9680;52.520;13.332;2024-02-15T13:37:47;6.35;;;2.05;;
19095;SDS011;9680;52.520;13.332;2024-02-15T13:40:15;2.83;;;1.77;;
19095;SDS011;9680;52.520;13.332;2024-02-15T13:42:43;3.92;;;1.85;;
19095;SDS011;9680;52.520;13.332;2024-02-15T13:45:14;3.35;;;1.92;;
19095;SDS011;9680;52.520;13.332;2024-02-15T13:47:43;9.70;;;1.95;;
19095;SDS011;9680;52.520;13.332;2024-02-15T13:50:12;10.45;;;2.00;;
19095;SDS011;9680;52.520;13.332;2024-02-15T13:52:40;4.47;;;2.05;;
19095;SDS011;9680;52.520;13.332;2024-02-15T13:55:10;4.13;;;2.30;;
19095;SDS011;9680;52.520;13.332;2024-02-15T13:57:39;6.22;;;2.20;;
19095;SDS011;9680;52.520;13.332;2024-02-15T14:00:07;4.43;;;2.50;;
19095;SDS011;9680;52.520;13.332;2024-02-15T14:02:39;4.75;;;2.20;;
19095;SDS011;9680;52.520;13.332;2024-02-15T14:05:08;5.25;;;2.25;;
19095;SDS011;9680;52.520;13.332;2024-02-15T14:07:36;3.88;;;2.10;;
19095;SDS011;9680;52.520;13.332;2024-02-15T14:10:04;4.82;;;2.33;;
19095;SDS011;9680;52.520;13.332;2024-02-15T14:12:33;4.65;;;1.90;;
19095;SDS011;9680;52.520;13.332;2024-02-15T14:15:01;6.53;;;2.55;;
19095;SDS011;9680;52.520;13.332;2024-02-15T14:17:30;4.95;;;2.50;;
19095;SDS011;9680;52.520;13.332;2024-02-15T14:19:57;5.22;;;2.50;;
19095;SDS011;9680;52.520;13.332;2024-02-15T14:22:26;4.65;;;2.10;;
19095;SDS011;9680;52.520;13.332;2024-02-15T14:24:54;4.78;;;2.03;;
19095;SDS011;9680;52.520;13.332;2024-02-15T14:27:21;3.75;;;2.00;;
19095;SDS011;9680;52.520;13.332;2024-02-15T14:29:49;4.75;;;2.47;;
19095;SDS011;9680;52.520;13.332;2024-02-15T14:32:30;5.85;;;2.60;;
19095;SDS011;9680;52.520;13.332;2024-02-15T14:35:14;4.30;;;2.55;;
19095;SDS011;9680;52.520;13.332;2024-02-15T14:37:42;4.15;;;2.17;;
19095;SDS011;9680;52.520;13.332;2024-02-15T14:40:09;5.68;;;2.50;;
19095;SDS011;9680;52.520;13.332;2024-02-15T14:42:39;3.67;;;2.30;;
19095;SDS011;9680;52.520;13.332;2024-02-15T14:45:10;6.75;;;2.40;;
19095;SDS011;9680;52.520;13.332;2024-02-15T14:47:37;5.65;;;2.10;;
19095;SDS011;9680;52.520;13.332;2024-02-15T14:50:05;5.60;;;2.40;;
19095;SDS011;9680;52.520;13.332;2024-02-15T14:52:34;3.65;;;2.30;;
19095;SDS011;9680;52.520;13.332;2024-02-15T14:55:02;4.18;;;2.30;;
19095;SDS011;9680;52.520;13.332;2024-02-15T14:57:30;4.50;;;2.20;;
19095;SDS011;9680;52.520;13.332;2024-02-15T14:59:57;8.57;;;2.70;;
19095;SDS011;9680;52.520;13.332;2024-02-15T15:02:26;9.23;;;2.33;;
19095;SDS011;9680;52.520;13.332;2024-02-15T15:04:53;5.05;;;2.50;;
19095;SDS011;9680;52.520;13.332;2024-02-15T15:07:39;4.13;;;2.50;;
19095;SDS011;9680;52.520;13.332;2024-02-15T15:10:24;5.72;;;2.58;;